sensor_id;sensor_type;location;lat;lon;timestamp;P1;durP1;ratioP1;P2;durP2;ratioP2
71083;SDS011;58741;52.672;13.548;2023-10-19T00:00:20;6.32;;;3.15;;
71083;SDS011;58741;52.672;13.548;2023-10-19T00:02:49;5.65;;;3.03;;
71083;SDS011;58741;52.672;13.548;2023-10-19T00:05:19;6.10;;;3.00;;
71083;SDS011;58741;52.672;13.548;2023-10-19T00:07:46;8.48;;;3.15;;
71083;SDS011;58741;52.672;13.548;2023-10-19T00:10:13;4.95;;;2.75;;
71083;SDS011;58741;52.672;13.548;2023-10-19T00:12:42;4.70;;;2.78;;
71083;SDS011;58741;52.672;13.548;2023-10-19T00:15:10;4.68;;;2.72;;
71083;SDS011;58741;52.672;13.548;2023-10-19T00:17:38;6.72;;;3.17;;
71083;SDS011;58741;52.672;13.548;2023-10-19T00:20:06;7.50;;;3.35;;
71083;SDS011;58741;52.672;13.548;2023-10-19T00:22:53;7.78;;;3.17;;
71083;SDS011;58741;52.672;13.548;2023-10-19T00:25:19;5.88;;;3.28;;
71083;SDS011;58741;52.672;13.548;2023-10-19T00:27:49;5.85;;;2.63;;
71083;SDS011;58741;52.672;13.548;2023-10-19T00:30:17;5.22;;;3.08;;
71083;SDS011;58741;52.672;13.548;2023-10-19T00:32:47;5.63;;;2.83;;
71083;SDS011;58741;52.672;13.548;2023-10-19T00:35:14;5.57;;;3.10;;
71083;SDS011;58741;52.672;13.548;2023-10-19T00:37:54;5.50;;;3.38;;
71083;SDS011;58741;52.672;13.548;2023-10-19T00:40:30;6.20;;;3.28;;
71083;SDS011;58741;52.672;13.548;2023-10-19T00:43:04;6.70;;;3.00;;
71083;SDS011;58741;52.672;13.548;2023-10-19T00:45:38;6.97;;;3.00;;
71083;SDS011;58741;52.672;13.548;2023-10-19T00:48:07;11.27;;;3.60;;
71083;SDS011;58741;52.672;13.548;2023-10-19T00:50:37;3.80;;;2.20;;
71083;SDS011;58741;52.672;13.548;2023-10-19T00:53:04;3.47;;;2.40;;
71083;SDS011;58741;52.672;13.548;2023-10-19T00:55:34;6.78;;;3.00;;
71083;SDS011;58741;52.672;13.548;2023-10-19T00:58:02;5.93;;;3.28;;
71083;SDS011;58741;52.672;13.548;2023-10-19T01:00:36;6.00;;;2.80;;
71083;SDS011;58741;52.672;13.548;2023-10-19T01:03:12;6.05;;;3.03;;
71083;SDS011;58741;52.672;13.548;2023-10-19T01:05:43;5.43;;;2.83;;
71083;SDS011;58741;52.672;13.548;2023-10-19T01:08:14;9.77;;;3.88;;
71083;SDS011;58741;52.672;13.548;2023-10-19T01:10:57;4.97;;;2.83;;
71083;SDS011;58741;52.672;13.548;2023-10-19T01:13:25;7.28;;;3.50;;
71083;SDS011;58741;52.672;13.548;2023-10-19T01:16:00;5.73;;;3.07;;
71083;SDS011;58741;52.672;13.548;2023-10-19T01:18:27;7.05;;;2.97;;
71083;SDS011;58741;52.672;13.548;2023-10-19T01:20:55;5.00;;;3.33;;
71083;SDS011;58741;52.672;13.548;2023-10-19T01:23:23;4.15;;;2.58;;
71083;SDS011;58741;52.672;13.548;2023-10-19T01:25:55;6.85;;;3.15;;
71083;SDS011;58741;52.672;13.548;2023-10-19T01:28:24;4.82;;;3.20;;
71083;SDS011;58741;52.672;13.548;2023-10-19T01:31:14;7.63;;;3.00;;
71083;SDS011;58741;52.672;13.548;2023-10-19T01:33:43;4.65;;;3.17;;
71083;SDS011;58741;52.672;13.548;2023-10-19T01:36:11;13.45;;;3.38;;
71083;SDS011;58741;52.672;13.548;2023-10-19T01:38:51;8.63;;;2.75;;
71083;SDS011;58741;52.672;13.548;2023-10-19T01:41:22;7.15;;;2.75;;
71083;SDS011;58741;52.672;13.548;2023-10-19T01:43:51;6.93;;;3.58;;
71083;SDS011;58741;52.672;13.548;2023-10-19T01:46:27;6.03;;;3.28;;
71083;SDS011;58741;52.672;13.548;2023-10-19T01:49:01;7.18;;;2.70;;
71083;SDS011;58741;52.672;13.548;2023-10-19T01:51:30;6.25;;;2.80;;
71083;SDS011;58741;52.672;13.548;2023-10-19T01:53:59;4.78;;;3.25;;
71083;SDS011;58741;52.672;13.548;2023-10-19T01:56:29;5.97;;;3.17;;
71083;SDS011;58741;52.672;13.548;2023-10-19T01:58:56;8.32;;;3.33;;
71083;SDS011;58741;52.672;13.548;2023-10-19T02:01:24;9.48;;;3.30;;
71083;SDS011;58741;52.672;13.548;2023-10-19T02:04:01;9.25;;;3.72;;
71083;SDS011;58741;52.672;13.548;2023-10-19T02:06:30;6.43;;;2.67;;
71083;SDS011;58741;52.672;13.548;2023-10-19T02:09:07;4.85;;;2.58;;
71083;SDS011;58741;52.672;13.548;2023-10-19T02:11:45;4.43;;;2.67;;
71083;SDS011;58741;52.672;13.548;2023-10-19T02:14:15;7.07;;;3.30;;
71083;SDS011;58741;52.672;13.548;2023-10-19T02:16:46;3.80;;;2.45;;
71083;SDS011;58741;52.672;13.548;2023-10-19T02:19:15;7.45;;;2.97;;
71083;SDS011;58741;52.672;13.548;2023-10-19T02:21:42;4.05;;;2.80;;
71083;SDS011;58741;52.672;13.548;2023-10-19T02:24:10;6.05;;;2.92;;
71083;SDS011;58741;52.672;13.548;2023-10-19T02:26:41;6.93;;;2.60;;
71083;SDS011;58741;52.672;13.548;2023-10-19T02:29:09;8.27;;;3.50;;
71083;SDS011;58741;52.672;13.548;2023-10-19T02:31:36;5.60;;;3.17;;
71083;SDS011;58741;52.672;13.548;2023-10-19T02:34:07;5.68;;;2.70;;
71083;SDS011;58741;52.672;13.548;2023-10-19T02:36:37;5.13;;;2.85;;
71083;SDS011;58741;52.672;13.548;2023-10-19T02:39:06;6.75;;;3.15;;
71083;SDS011;58741;52.672;13.548;2023-10-19T02:41:39;10.88;;;3.63;;
71083;SDS011;58741;52.672;13.548;2023-10-19T02:44:08;6.03;;;3.80;;
71083;SDS011;58741;52.672;13.548;2023-10-19T02:46:46;6.30;;;3.10;;
71083;SDS011;58741;52.672;13.548;2023-10-19T02:49:27;8.15;;;3.22;;
71083;SDS011;58741;52.672;13.548;2023-10-19T02:51:56;5.43;;;3.15;;
71083;SDS011;58741;52.672;13.548;2023-10-19T02:54:30;7.65;;;3.63;;
71083;SDS011;58741;52.672;13.548;2023-10-19T02:57:01;8.43;;;3.50;;
71083;SDS011;58741;52.672;13.548;2023-10-19T02:59:32;7.75;;;3.35;;
71083;SDS011;58741;52.672;13.548;2023-10-19T03:02:00;9.10;;;3.75;;
71083;SDS011;58741;52.672;13.548;2023-10-19T03:04:29;6.68;;;3.78;;
71083;SDS011;58741;52.672;13.548;2023-10-19T03:06:56;7.80;;;3.13;;
71083;SDS011;58741;52.672;13.548;2023-10-19T03:09:24;5.07;;;3.13;;
71083;SDS011;58741;52.672;13.548;2023-10-19T03:11:54;6.78;;;3.17;;
71083;SDS011;58741;52.672;13.548;2023-10-19T03:14:26;6.82;;;3.40;;
71083;SDS011;58741;52.672;13.548;2023-10-19T03:16:53;6.70;;;3.05;;
71083;SDS011;58741;52.672;13.548;2023-10-19T03:19:24;6.35;;;3.15;;
71083;SDS011;58741;52.672;13.548;2023-10-19T03:21:52;4.45;;;2.60;;
71083;SDS011;58741;52.672;13.548;2023-10-19T03:24:22;4.75;;;2.72;;
71083;SDS011;58741;52.672;13.548;2023-10-19T03:27:21;6.70;;;2.88;;
71083;SDS011;58741;52.672;13.548;2023-10-19T03:29:48;8.73;;;4.07;;
71083;SDS011;58741;52.672;13.548;2023-10-19T03:32:22;9.60;;;3.00;;
71083;SDS011;58741;52.672;13.548;2023-10-19T03:34:54;8.75;;;3.33;;
71083;SDS011;58741;52.672;13.548;2023-10-19T03:37:23;8.25;;;4.22;;
71083;SDS011;58741;52.672;13.548;2023-10-19T03:39:52;10.18;;;4.43;;
71083;SDS011;58741;52.672;13.548;2023-10-19T03:42:23;9.05;;;4.05;;
71083;SDS011;58741;52.672;13.548;2023-10-19T03:44:59;7.47;;;3.72;;
71083;SDS011;58741;52.672;13.548;2023-10-19T03:47:34;7.18;;;4.25;;
71083;SDS011;58741;52.672;13.548;2023-10-19T03:50:02;9.98;;;4.45;;
71083;SDS011;58741;52.672;13.548;2023-10-19T03:52:36;7.28;;;3.78;;
71083;SDS011;58741;52.672;13.548;2023-10-19T03:55:07;8.02;;;4.35;;
71083;SDS011;58741;52.672;13.548;2023-10-19T03:57:44;5.45;;;3.65;;
71083;SDS011;58741;52.672;13.548;2023-10-19T04:00:20;13.48;;;5.15;;
71083;SDS011;58741;52.672;13.548;2023-10-19T04:02:55;9.90;;;4.75;;
71083;SDS011;58741;52.672;13.548;2023-10-19T04:05:25;7.80;;;4.57;;
71083;SDS011;58741;52.672;13.548;2023-10-19T04:07:52;8.05;;;3.97;;
71083;SDS011;58741;52.672;13.548;2023-10-19T04:10:24;6.90;;;4.13;;
71083;SDS011;58741;52.672;13.548;2023-10-19T04:13:05;6.55;;;3.63;;
71083;SDS011;58741;52.672;13.548;2023-10-19T04:15:39;7.43;;;4.05;;
71083;SDS011;58741;52.672;13.548;2023-10-19T04:18:08;10.32;;;3.78;;
71083;SDS011;58741;52.672;13.548;2023-10-19T04:20:35;6.57;;;3.88;;
71083;SDS011;58741;52.672;13.548;2023-10-19T04:23:22;7.78;;;4.15;;
71083;SDS011;58741;52.672;13.548;2023-10-19T04:26:01;8.18;;;4.00;;
71083;SDS011;58741;52.672;13.548;2023-10-19T04:28:37;10.10;;;4.63;;
71083;SDS011;58741;52.672;13.548;2023-10-19T04:31:11;9.30;;;4.50;;
71083;SDS011;58741;52.672;13.548;2023-10-19T04:33:40;8.55;;;3.75;;
71083;SDS011;58741;52.672;13.548;2023-10-19T04:36:12;7.07;;;3.45;;
71083;SDS011;58741;52.672;13.548;2023-10-19T04:38:40;10.32;;;4.13;;
71083;SDS011;58741;52.672;13.548;2023-10-19T04:41:07;7.53;;;4.00;;
71083;SDS011;58741;52.672;13.548;2023-10-19T04:43:36;10.13;;;4.32;;
71083;SDS011;58741;52.672;13.548;2023-10-19T04:46:07;8.02;;;4.03;;
71083;SDS011;58741;52.672;13.548;2023-10-19T04:48:41;6.53;;;3.78;;
71083;SDS011;58741;52.672;13.548;2023-10-19T04:51:08;7.93;;;4.93;;
71083;SDS011;58741;52.672;13.548;2023-10-19T04:53:36;11.63;;;4.78;;
71083;SDS011;58741;52.672;13.548;2023-10-19T04:56:04;8.45;;;4.03;;
71083;SDS011;58741;52.672;13.548;2023-10-19T04:58:31;8.75;;;4.65;;
71083;SDS011;58741;52.672;13.548;2023-10-19T05:00:59;11.65;;;4.53;;
71083;SDS011;58741;52.672;13.548;2023-10-19T05:03:26;4.95;;;3.33;;
71083;SDS011;58741;52.672;13.548;2023-10-19T05:05:54;8.52;;;4.47;;
71083;SDS011;58741;52.672;13.548;2023-10-19T05:08:21;8.00;;;3.63;;
71083;SDS011;58741;52.672;13.548;2023-10-19T05:10:54;7.03;;;3.80;;
71083;SDS011;58741;52.672;13.548;2023-10-19T05:13:23;13.05;;;4.45;;
71083;SDS011;58741;52.672;13.548;2023-10-19T05:15:52;7.95;;;3.92;;
71083;SDS011;58741;52.672;13.548;2023-10-19T05:18:20;8.35;;;4.07;;
71083;SDS011;58741;52.672;13.548;2023-10-19T05:20:54;8.18;;;4.40;;
71083;SDS011;58741;52.672;13.548;2023-10-19T05:23:23;8.50;;;4.80;;
71083;SDS011;58741;52.672;13.548;2023-10-19T05:25:51;14.70;;;5.18;;
71083;SDS011;58741;52.672;13.548;2023-10-19T05:28:20;9.90;;;4.78;;
71083;SDS011;58741;52.672;13.548;2023-10-19T05:30:48;11.05;;;5.00;;
71083;SDS011;58741;52.672;13.548;2023-10-19T05:33:17;9.55;;;5.00;;
71083;SDS011;58741;52.672;13.548;2023-10-19T05:35:47;9.75;;;4.40;;
71083;SDS011;58741;52.672;13.548;2023-10-19T05:38:14;8.80;;;5.47;;
71083;SDS011;58741;52.672;13.548;2023-10-19T05:40:42;8.32;;;4.50;;
71083;SDS011;58741;52.672;13.548;2023-10-19T05:43:11;9.23;;;3.95;;
71083;SDS011;58741;52.672;13.548;2023-10-19T05:45:38;12.93;;;4.43;;
71083;SDS011;58741;52.672;13.548;2023-10-19T05:48:07;6.65;;;4.15;;
71083;SDS011;58741;52.672;13.548;2023-10-19T05:50:34;7.80;;;4.43;;
71083;SDS011;58741;52.672;13.548;2023-10-19T05:53:02;8.50;;;3.95;;
71083;SDS011;58741;52.672;13.548;2023-10-19T05:55:29;7.07;;;3.97;;
71083;SDS011;58741;52.672;13.548;2023-10-19T05:57:57;6.85;;;4.88;;
71083;SDS011;58741;52.672;13.548;2023-10-19T06:00:25;7.90;;;4.15;;
71083;SDS011;58741;52.672;13.548;2023-10-19T06:02:52;10.60;;;4.72;;
71083;SDS011;58741;52.672;13.548;2023-10-19T06:05:19;8.65;;;4.35;;
71083;SDS011;58741;52.672;13.548;2023-10-19T06:07:47;8.93;;;4.40;;
71083;SDS011;58741;52.672;13.548;2023-10-19T06:10:17;17.05;;;5.18;;
71083;SDS011;58741;52.672;13.548;2023-10-19T06:12:49;8.68;;;4.43;;
71083;SDS011;58741;52.672;13.548;2023-10-19T06:15:17;10.35;;;4.18;;
71083;SDS011;58741;52.672;13.548;2023-10-19T06:17:47;5.75;;;3.92;;
71083;SDS011;58741;52.672;13.548;2023-10-19T06:20:15;9.93;;;5.05;;
71083;SDS011;58741;52.672;13.548;2023-10-19T06:22:51;5.90;;;3.85;;
71083;SDS011;58741;52.672;13.548;2023-10-19T06:25:19;6.53;;;4.00;;
71083;SDS011;58741;52.672;13.548;2023-10-19T06:27:52;9.90;;;3.83;;
71083;SDS011;58741;52.672;13.548;2023-10-19T06:30:23;7.22;;;4.22;;
71083;SDS011;58741;52.672;13.548;2023-10-19T06:32:52;11.07;;;5.32;;
71083;SDS011;58741;52.672;13.548;2023-10-19T06:35:30;9.35;;;4.10;;
71083;SDS011;58741;52.672;13.548;2023-10-19T06:38:02;8.13;;;4.30;;
71083;SDS011;58741;52.672;13.548;2023-10-19T06:40:30;5.63;;;3.55;;
71083;SDS011;58741;52.672;13.548;2023-10-19T06:42:57;6.47;;;4.05;;
71083;SDS011;58741;52.672;13.548;2023-10-19T06:45:25;10.35;;;3.92;;
71083;SDS011;58741;52.672;13.548;2023-10-19T06:47:52;13.82;;;3.97;;
71083;SDS011;58741;52.672;13.548;2023-10-19T06:50:19;6.50;;;3.22;;
71083;SDS011;58741;52.672;13.548;2023-10-19T06:52:47;10.27;;;4.65;;
71083;SDS011;58741;52.672;13.548;2023-10-19T06:55:15;5.95;;;3.70;;
71083;SDS011;58741;52.672;13.548;2023-10-19T06:57:46;10.52;;;3.78;;
71083;SDS011;58741;52.672;13.548;2023-10-19T07:00:16;5.50;;;3.00;;
71083;SDS011;58741;52.672;13.548;2023-10-19T07:02:46;7.65;;;4.30;;
71083;SDS011;58741;52.672;13.548;2023-10-19T07:05:14;6.18;;;3.55;;
71083;SDS011;58741;52.672;13.548;2023-10-19T07:07:45;5.70;;;3.28;;
71083;SDS011;58741;52.672;13.548;2023-10-19T07:10:12;6.43;;;3.90;;
71083;SDS011;58741;52.672;13.548;2023-10-19T07:12:40;7.53;;;4.00;;
71083;SDS011;58741;52.672;13.548;2023-10-19T07:15:08;9.35;;;3.88;;
71083;SDS011;58741;52.672;13.548;2023-10-19T07:17:43;8.32;;;3.53;;
71083;SDS011;58741;52.672;13.548;2023-10-19T07:20:11;7.63;;;3.95;;
71083;SDS011;58741;52.672;13.548;2023-10-19T07:22:53;10.75;;;4.68;;
71083;SDS011;58741;52.672;13.548;2023-10-19T07:25:33;6.60;;;4.32;;
71083;SDS011;58741;52.672;13.548;2023-10-19T07:28:10;14.00;;;5.55;;
71083;SDS011;58741;52.672;13.548;2023-10-19T07:30:39;9.27;;;4.18;;
71083;SDS011;58741;52.672;13.548;2023-10-19T07:33:11;8.90;;;4.72;;
71083;SDS011;58741;52.672;13.548;2023-10-19T07:35:44;7.07;;;4.15;;
71083;SDS011;58741;52.672;13.548;2023-10-19T07:38:18;9.10;;;4.60;;
71083;SDS011;58741;52.672;13.548;2023-10-19T07:40:48;6.22;;;3.88;;
71083;SDS011;58741;52.672;13.548;2023-10-19T07:43:15;7.63;;;4.30;;
71083;SDS011;58741;52.672;13.548;2023-10-19T07:45:41;7.32;;;4.05;;
71083;SDS011;58741;52.672;13.548;2023-10-19T07:48:09;9.63;;;3.75;;
71083;SDS011;58741;52.672;13.548;2023-10-19T07:50:39;7.22;;;2.92;;
71083;SDS011;58741;52.672;13.548;2023-10-19T07:53:07;5.68;;;3.25;;
71083;SDS011;58741;52.672;13.548;2023-10-19T07:55:35;6.47;;;3.42;;
71083;SDS011;58741;52.672;13.548;2023-10-19T07:58:04;7.05;;;4.15;;
71083;SDS011;58741;52.672;13.548;2023-10-19T08:00:31;7.85;;;3.17;;
71083;SDS011;58741;52.672;13.548;2023-10-19T08:03:00;10.40;;;3.72;;
71083;SDS011;58741;52.672;13.548;2023-10-19T08:05:27;11.30;;;4.30;;
71083;SDS011;58741;52.672;13.548;2023-10-19T08:07:54;16.52;;;4.57;;
71083;SDS011;58741;52.672;13.548;2023-10-19T08:10:21;8.10;;;3.65;;
71083;SDS011;58741;52.672;13.548;2023-10-19T08:12:48;6.32;;;4.03;;
71083;SDS011;58741;52.672;13.548;2023-10-19T08:15:15;6.07;;;3.67;;
71083;SDS011;58741;52.672;13.548;2023-10-19T08:17:43;7.05;;;3.60;;
71083;SDS011;58741;52.672;13.548;2023-10-19T08:20:14;7.28;;;4.28;;
71083;SDS011;58741;52.672;13.548;2023-10-19T08:22:52;6.28;;;3.15;;
71083;SDS011;58741;52.672;13.548;2023-10-19T08:25:24;6.30;;;3.30;;
71083;SDS011;58741;52.672;13.548;2023-10-19T08:28:09;13.55;;;4.65;;
71083;SDS011;58741;52.672;13.548;2023-10-19T08:30:37;6.57;;;3.80;;
71083;SDS011;58741;52.672;13.548;2023-10-19T08:33:07;6.93;;;3.85;;
71083;SDS011;58741;52.672;13.548;2023-10-19T08:35:34;14.55;;;5.55;;
71083;SDS011;58741;52.672;13.548;2023-10-19T08:38:02;6.95;;;3.85;;
71083;SDS011;58741;52.672;13.548;2023-10-19T08:40:36;10.13;;;4.35;;
71083;SDS011;58741;52.672;13.548;2023-10-19T08:43:04;6.28;;;4.20;;
71083;SDS011;58741;52.672;13.548;2023-10-19T08:45:31;8.00;;;4.32;;
71083;SDS011;58741;52.672;13.548;2023-10-19T08:48:01;8.43;;;3.58;;
71083;SDS011;58741;52.672;13.548;2023-10-19T08:50:29;8.77;;;4.00;;
71083;SDS011;58741;52.672;13.548;2023-10-19T08:52:58;8.25;;;4.22;;
71083;SDS011;58741;52.672;13.548;2023-10-19T08:55:27;6.32;;;4.05;;
71083;SDS011;58741;52.672;13.548;2023-10-19T09:00:46;6.20;;;3.63;;
71083;SDS011;58741;52.672;13.548;2023-10-19T09:03:16;11.73;;;4.97;;
71083;SDS011;58741;52.672;13.548;2023-10-19T09:05:44;12.10;;;5.38;;
71083;SDS011;58741;52.672;13.548;2023-10-19T09:08:13;10.70;;;4.60;;
71083;SDS011;58741;52.672;13.548;2023-10-19T09:10:42;8.88;;;4.72;;
71083;SDS011;58741;52.672;13.548;2023-10-19T09:13:12;8.20;;;4.75;;
71083;SDS011;58741;52.672;13.548;2023-10-19T09:15:41;6.32;;;3.88;;
71083;SDS011;58741;52.672;13.548;2023-10-19T09:18:21;4.68;;;3.22;;
71083;SDS011;58741;52.672;13.548;2023-10-19T09:20:49;7.18;;;3.85;;
71083;SDS011;58741;52.672;13.548;2023-10-19T09:23:22;6.85;;;3.72;;
71083;SDS011;58741;52.672;13.548;2023-10-19T09:25:51;9.32;;;4.75;;
71083;SDS011;58741;52.672;13.548;2023-10-19T09:28:19;10.07;;;4.13;;
71083;SDS011;58741;52.672;13.548;2023-10-19T09:30:48;9.05;;;4.15;;
71083;SDS011;58741;52.672;13.548;2023-10-19T09:33:15;8.05;;;4.15;;
71083;SDS011;58741;52.672;13.548;2023-10-19T09:35:45;5.78;;;3.47;;
71083;SDS011;58741;52.672;13.548;2023-10-19T09:38:19;9.73;;;4.13;;
71083;SDS011;58741;52.672;13.548;2023-10-19T09:40:51;7.30;;;3.55;;
71083;SDS011;58741;52.672;13.548;2023-10-19T09:43:33;5.35;;;3.65;;
71083;SDS011;58741;52.672;13.548;2023-10-19T09:46:06;7.30;;;3.97;;
71083;SDS011;58741;52.672;13.548;2023-10-19T09:48:41;5.90;;;3.65;;
71083;SDS011;58741;52.672;13.548;2023-10-19T09:51:12;9.60;;;4.68;;
71083;SDS011;58741;52.672;13.548;2023-10-19T09:53:44;6.68;;;3.78;;
71083;SDS011;58741;52.672;13.548;2023-10-19T09:56:19;9.77;;;4.25;;
71083;SDS011;58741;52.672;13.548;2023-10-19T09:58:51;6.32;;;3.50;;
71083;SDS011;58741;52.672;13.548;2023-10-19T10:01:21;6.68;;;3.92;;
71083;SDS011;58741;52.672;13.548;2023-10-19T10:03:49;5.32;;;3.40;;
71083;SDS011;58741;52.672;13.548;2023-10-19T10:06:28;7.43;;;3.95;;
71083;SDS011;58741;52.672;13.548;2023-10-19T10:09:13;9.55;;;4.63;;
71083;SDS011;58741;52.672;13.548;2023-10-19T10:11:48;8.13;;;4.50;;
71083;SDS011;58741;52.672;13.548;2023-10-19T10:14:22;12.57;;;4.18;;
71083;SDS011;58741;52.672;13.548;2023-10-19T10:17:03;9.05;;;3.90;;
71083;SDS011;58741;52.672;13.548;2023-10-19T10:19:31;13.02;;;4.10;;
71083;SDS011;58741;52.672;13.548;2023-10-19T10:24:41;7.25;;;4.38;;
71083;SDS011;58741;52.672;13.548;2023-10-19T10:27:08;3.90;;;3.35;;
71083;SDS011;58741;52.672;13.548;2023-10-19T10:29:36;12.68;;;4.25;;
71083;SDS011;58741;52.672;13.548;2023-10-19T10:38:03;8.55;;;4.78;;
71083;SDS011;58741;52.672;13.548;2023-10-19T10:40:44;6.43;;;3.78;;
71083;SDS011;58741;52.672;13.548;2023-10-19T10:43:16;7.70;;;3.80;;
71083;SDS011;58741;52.672;13.548;2023-10-19T10:45:43;9.05;;;4.55;;
71083;SDS011;58741;52.672;13.548;2023-10-19T10:48:14;6.90;;;4.18;;
71083;SDS011;58741;52.672;13.548;2023-10-19T10:50:42;11.60;;;5.53;;
71083;SDS011;58741;52.672;13.548;2023-10-19T10:53:12;12.77;;;5.60;;
71083;SDS011;58741;52.672;13.548;2023-10-19T10:58:34;7.78;;;4.55;;
71083;SDS011;58741;52.672;13.548;2023-10-19T11:01:01;8.25;;;4.50;;
71083;SDS011;58741;52.672;13.548;2023-10-19T11:03:28;6.18;;;3.33;;
71083;SDS011;58741;52.672;13.548;2023-10-19T11:06:03;10.98;;;5.35;;
71083;SDS011;58741;52.672;13.548;2023-10-19T11:08:36;7.78;;;3.67;;
71083;SDS011;58741;52.672;13.548;2023-10-19T11:11:08;7.70;;;4.43;;
71083;SDS011;58741;52.672;13.548;2023-10-19T11:13:39;7.50;;;3.60;;
71083;SDS011;58741;52.672;13.548;2023-10-19T11:16:06;9.20;;;4.70;;
71083;SDS011;58741;52.672;13.548;2023-10-19T11:18:40;10.50;;;4.07;;
71083;SDS011;58741;52.672;13.548;2023-10-19T11:21:12;9.38;;;5.03;;
71083;SDS011;58741;52.672;13.548;2023-10-19T11:23:42;7.65;;;4.38;;
71083;SDS011;58741;52.672;13.548;2023-10-19T11:26:10;7.68;;;4.85;;
71083;SDS011;58741;52.672;13.548;2023-10-19T11:28:38;8.80;;;4.13;;
71083;SDS011;58741;52.672;13.548;2023-10-19T11:33:43;8.32;;;3.65;;
71083;SDS011;58741;52.672;13.548;2023-10-19T11:36:11;7.55;;;4.00;;
71083;SDS011;58741;52.672;13.548;2023-10-19T11:38:42;13.73;;;4.45;;
71083;SDS011;58741;52.672;13.548;2023-10-19T11:41:10;8.38;;;4.65;;
71083;SDS011;58741;52.672;13.548;2023-10-19T11:43:39;10.20;;;4.97;;
71083;SDS011;58741;52.672;13.548;2023-10-19T11:46:09;9.75;;;4.93;;
71083;SDS011;58741;52.672;13.548;2023-10-19T11:48:38;9.60;;;5.38;;
71083;SDS011;58741;52.672;13.548;2023-10-19T11:51:06;10.70;;;5.13;;
71083;SDS011;58741;52.672;13.548;2023-10-19T11:53:33;12.10;;;5.40;;
71083;SDS011;58741;52.672;13.548;2023-10-19T11:56:04;8.57;;;4.88;;
71083;SDS011;58741;52.672;13.548;2023-10-19T11:58:39;7.78;;;4.63;;
71083;SDS011;58741;52.672;13.548;2023-10-19T12:01:09;8.32;;;3.83;;
71083;SDS011;58741;52.672;13.548;2023-10-19T12:03:39;13.30;;;4.53;;
71083;SDS011;58741;52.672;13.548;2023-10-19T12:06:07;6.15;;;3.38;;
71083;SDS011;58741;52.672;13.548;2023-10-19T12:08:35;8.43;;;4.55;;
71083;SDS011;58741;52.672;13.548;2023-10-19T12:11:03;10.55;;;4.57;;
71083;SDS011;58741;52.672;13.548;2023-10-19T12:13:32;7.57;;;4.40;;
71083;SDS011;58741;52.672;13.548;2023-10-19T12:15:59;9.18;;;4.88;;
71083;SDS011;58741;52.672;13.548;2023-10-19T12:18:25;13.55;;;5.68;;
71083;SDS011;58741;52.672;13.548;2023-10-19T12:20:53;9.45;;;4.78;;
71083;SDS011;58741;52.672;13.548;2023-10-19T12:23:22;9.52;;;5.43;;
71083;SDS011;58741;52.672;13.548;2023-10-19T12:25:50;8.43;;;5.00;;
71083;SDS011;58741;52.672;13.548;2023-10-19T12:28:23;8.18;;;4.10;;
71083;SDS011;58741;52.672;13.548;2023-10-19T12:30:51;6.95;;;3.78;;
71083;SDS011;58741;52.672;13.548;2023-10-19T12:33:18;9.43;;;3.90;;
71083;SDS011;58741;52.672;13.548;2023-10-19T12:35:46;8.32;;;4.65;;
71083;SDS011;58741;52.672;13.548;2023-10-19T12:38:26;9.50;;;3.65;;
71083;SDS011;58741;52.672;13.548;2023-10-19T12:40:53;7.15;;;3.78;;
71083;SDS011;58741;52.672;13.548;2023-10-19T12:43:21;9.43;;;4.72;;
71083;SDS011;58741;52.672;13.548;2023-10-19T12:45:56;8.68;;;3.53;;
71083;SDS011;58741;52.672;13.548;2023-10-19T12:48:24;10.80;;;4.68;;
71083;SDS011;58741;52.672;13.548;2023-10-19T12:51:00;9.70;;;4.90;;
71083;SDS011;58741;52.672;13.548;2023-10-19T12:53:28;11.55;;;4.97;;
71083;SDS011;58741;52.672;13.548;2023-10-19T12:55:55;10.07;;;4.60;;
71083;SDS011;58741;52.672;13.548;2023-10-19T12:58:22;9.82;;;4.60;;
71083;SDS011;58741;52.672;13.548;2023-10-19T13:00:48;6.65;;;3.97;;
71083;SDS011;58741;52.672;13.548;2023-10-19T13:03:15;8.57;;;4.60;;
71083;SDS011;58741;52.672;13.548;2023-10-19T13:05:43;14.02;;;4.32;;
71083;SDS011;58741;52.672;13.548;2023-10-19T13:08:11;9.43;;;4.57;;
71083;SDS011;58741;52.672;13.548;2023-10-19T13:10:42;9.52;;;5.03;;
71083;SDS011;58741;52.672;13.548;2023-10-19T13:13:11;7.43;;;4.13;;
71083;SDS011;58741;52.672;13.548;2023-10-19T13:15:39;7.57;;;3.97;;
71083;SDS011;58741;52.672;13.548;2023-10-19T13:18:08;13.15;;;4.43;;
71083;SDS011;58741;52.672;13.548;2023-10-19T13:20:51;8.45;;;3.88;;
71083;SDS011;58741;52.672;13.548;2023-10-19T13:23:20;7.65;;;4.30;;
71083;SDS011;58741;52.672;13.548;2023-10-19T13:25:50;18.00;;;4.97;;
71083;SDS011;58741;52.672;13.548;2023-10-19T13:28:20;10.93;;;5.47;;
71083;SDS011;58741;52.672;13.548;2023-10-19T13:33:17;11.88;;;5.47;;
71083;SDS011;58741;52.672;13.548;2023-10-19T13:35:45;9.07;;;5.32;;
71083;SDS011;58741;52.672;13.548;2023-10-19T13:38:12;14.07;;;5.47;;
71083;SDS011;58741;52.672;13.548;2023-10-19T13:40:43;11.68;;;4.95;;
71083;SDS011;58741;52.672;13.548;2023-10-19T13:43:11;9.23;;;4.60;;
71083;SDS011;58741;52.672;13.548;2023-10-19T13:45:42;8.68;;;4.68;;
71083;SDS011;58741;52.672;13.548;2023-10-19T13:48:10;9.45;;;5.45;;
71083;SDS011;58741;52.672;13.548;2023-10-19T13:50:46;9.00;;;4.35;;
71083;SDS011;58741;52.672;13.548;2023-10-19T13:53:18;8.65;;;4.32;;
71083;SDS011;58741;52.672;13.548;2023-10-19T13:55:45;6.22;;;4.10;;
71083;SDS011;58741;52.672;13.548;2023-10-19T13:58:12;7.30;;;4.68;;
71083;SDS011;58741;52.672;13.548;2023-10-19T14:00:41;7.10;;;4.57;;
71083;SDS011;58741;52.672;13.548;2023-10-19T14:03:10;11.13;;;4.68;;
71083;SDS011;58741;52.672;13.548;2023-10-19T14:05:44;9.85;;;4.25;;
71083;SDS011;58741;52.672;13.548;2023-10-19T14:08:15;7.95;;;4.50;;
71083;SDS011;58741;52.672;13.548;2023-10-19T14:10:43;11.45;;;4.30;;
71083;SDS011;58741;52.672;13.548;2023-10-19T14:13:11;13.63;;;5.43;;
71083;SDS011;58741;52.672;13.548;2023-10-19T14:15:38;8.15;;;4.65;;
71083;SDS011;58741;52.672;13.548;2023-10-19T14:18:05;8.07;;;4.03;;
71083;SDS011;58741;52.672;13.548;2023-10-19T14:20:33;7.75;;;4.45;;
71083;SDS011;58741;52.672;13.548;2023-10-19T14:23:01;7.28;;;4.40;;
71083;SDS011;58741;52.672;13.548;2023-10-19T14:25:31;8.38;;;4.60;;
71083;SDS011;58741;52.672;13.548;2023-10-19T14:28:02;9.80;;;4.30;;
71083;SDS011;58741;52.672;13.548;2023-10-19T14:30:33;7.03;;;4.32;;
71083;SDS011;58741;52.672;13.548;2023-10-19T14:33:00;9.25;;;4.32;;
71083;SDS011;58741;52.672;13.548;2023-10-19T14:35:28;8.05;;;4.28;;
71083;SDS011;58741;52.672;13.548;2023-10-19T14:37:55;9.95;;;4.22;;
71083;SDS011;58741;52.672;13.548;2023-10-19T14:40:23;8.13;;;4.85;;
71083;SDS011;58741;52.672;13.548;2023-10-19T14:42:52;10.32;;;5.00;;
71083;SDS011;58741;52.672;13.548;2023-10-19T14:45:23;12.85;;;4.47;;
71083;SDS011;58741;52.672;13.548;2023-10-19T14:47:55;9.23;;;4.35;;
71083;SDS011;58741;52.672;13.548;2023-10-19T14:50:30;7.95;;;4.53;;
71083;SDS011;58741;52.672;13.548;2023-10-19T14:52:57;7.68;;;4.03;;
71083;SDS011;58741;52.672;13.548;2023-10-19T14:55:24;13.65;;;4.63;;
71083;SDS011;58741;52.672;13.548;2023-10-19T14:57:54;6.95;;;3.97;;
71083;SDS011;58741;52.672;13.548;2023-10-19T15:00:22;9.65;;;4.95;;
71083;SDS011;58741;52.672;13.548;2023-10-19T15:03:11;13.18;;;4.95;;
71083;SDS011;58741;52.672;13.548;2023-10-19T15:05:38;9.05;;;4.60;;
71083;SDS011;58741;52.672;13.548;2023-10-19T15:08:07;10.50;;;5.13;;